createdAt,value
2019-02-19T00:00:50.212Z,97.00
2019-02-19T00:03:19.751Z,96.90
2019-02-19T00:06:01.971Z,97.00
2019-02-19T00:08:50.403Z,97.10
2019-02-19T00:11:17.507Z,97.20
2019-02-19T00:13:49.444Z,97.10
2019-02-19T00:16:19.128Z,97.30
2019-02-19T00:19:09.248Z,97.20
2019-02-19T00:21:38.969Z,97.20
2019-02-19T00:24:08.362Z,97.40
2019-02-19T00:29:31.556Z,97.50
2019-02-19T00:32:01.424Z,97.50
2019-02-19T00:34:31.097Z,97.70
2019-02-19T00:39:37.064Z,97.90
2019-02-19T00:42:12.469Z,97.80
2019-02-19T00:44:42.291Z,97.70
2019-02-19T00:47:11.664Z,97.80
2019-02-19T00:50:16.340Z,97.90
2019-02-19T00:52:45.820Z,97.90
2019-02-19T00:55:34.203Z,98.00
2019-02-19T00:58:03.721Z,98.20
2019-02-19T01:00:33.335Z,98.10
2019-02-19T01:03:02.851Z,98.50
2019-02-19T01:05:41.192Z,98.50
2019-02-19T01:10:44.674Z,98.30
2019-02-19T01:13:16.199Z,98.40
2019-02-19T01:16:10.608Z,98.40
2019-02-19T01:22:36.130Z,98.70
2019-02-19T01:25:06.074Z,98.90
2019-02-19T01:27:35.698Z,98.90
2019-02-19T01:30:05.941Z,98.80
2019-02-19T01:32:35.392Z,98.90
2019-02-19T01:35:05.221Z,99.30
2019-02-19T01:37:34.600Z,99.10
2019-02-19T01:40:10.083Z,99.20
2019-02-19T01:42:39.521Z,99.10
2019-02-19T01:45:38.323Z,99.50
2019-02-19T01:48:07.730Z,99.60
2019-02-19T01:50:40.170Z,99.90
2019-02-19T01:53:09.889Z,99.90
2019-02-19T01:55:39.555Z,99.90
2019-02-19T01:58:09.149Z,99.90
2019-02-19T02:00:41.289Z,99.90
2019-02-19T02:03:10.657Z,99.90
2019-02-19T02:06:15.328Z,99.90
2019-02-19T02:09:11.089Z,99.90
2019-02-19T02:11:40.493Z,99.90
2019-02-19T02:14:09.834Z,99.90
2019-02-19T02:16:39.151Z,99.90
2019-02-19T02:19:08.873Z,99.90
2019-02-19T02:21:41.025Z,99.90
2019-02-19T02:24:10.507Z,99.90
2019-02-19T02:26:40.568Z,99.90
2019-02-19T02:29:10.311Z,99.90
2019-02-19T02:32:41.534Z,99.90
2019-02-19T02:35:11.455Z,99.90
2019-02-19T02:38:11.877Z,99.90
2019-02-19T02:40:41.305Z,99.90
2019-02-19T02:44:17.253Z,99.90
2019-02-19T02:46:46.831Z,99.90
2019-02-19T02:49:16.817Z,99.90
2019-02-19T02:52:17.601Z,99.90
2019-02-19T02:55:10.293Z,99.90
2019-02-19T02:57:39.637Z,99.90
2019-02-19T03:00:10.741Z,99.90
2019-02-19T03:03:05.628Z,99.90
2019-02-19T03:05:38.949Z,99.90
2019-02-19T03:08:13.273Z,99.90
2019-02-19T03:10:44.494Z,99.90
2019-02-19T03:13:13.890Z,99.90
2019-02-19T03:15:45.031Z,99.90
2019-02-19T03:18:14.713Z,99.90
2019-02-19T03:20:46.697Z,99.90
2019-02-19T03:23:16.262Z,99.90
2019-02-19T03:25:45.896Z,99.90
2019-02-19T03:28:15.428Z,99.90
2019-02-19T03:30:46.788Z,99.90
2019-02-19T03:33:37.799Z,99.90
2019-02-19T03:36:07.510Z,99.90
2019-02-19T03:38:37.219Z,99.90
2019-02-19T03:41:29.149Z,99.90
2019-02-19T03:43:58.631Z,99.90
2019-02-19T03:46:48.663Z,99.90
2019-02-19T03:49:18.048Z,99.90
2019-02-19T03:52:06.895Z,99.90
2019-02-19T03:54:38.175Z,99.90
2019-02-19T03:57:26.922Z,99.90
2019-02-19T03:59:58.869Z,99.90
2019-02-19T04:02:32.292Z,99.90
2019-02-19T04:05:01.885Z,99.90
2019-02-19T04:07:41.596Z,99.90
2019-02-19T04:10:11.080Z,99.90
2019-02-19T04:12:43.781Z,99.90
2019-02-19T04:15:13.222Z,99.90
2019-02-19T04:17:42.704Z,99.90
2019-02-19T04:20:12.120Z,99.90
2019-02-19T04:22:41.592Z,99.90
2019-02-19T04:25:10.888Z,99.90
2019-02-19T04:27:40.529Z,99.90
2019-02-19T04:30:09.958Z,99.90
2019-02-19T04:32:39.592Z,99.90
2019-02-19T04:35:09.113Z,99.90
2019-02-19T04:37:38.488Z,99.90
2019-02-19T04:40:08.056Z,99.90
2019-02-19T04:42:37.508Z,99.90
2019-02-19T04:45:06.841Z,99.90
2019-02-19T04:47:36.167Z,99.90
2019-02-19T04:50:06.081Z,99.90
2019-02-19T04:52:35.893Z,99.90
2019-02-19T04:55:05.413Z,99.90
2019-02-19T04:57:34.803Z,99.90
2019-02-19T05:00:04.783Z,99.90
2019-02-19T05:02:37.165Z,99.90
2019-02-19T05:05:07.251Z,99.90
2019-02-19T05:07:36.629Z,99.90
2019-02-19T05:10:06.607Z,99.90
2019-02-19T05:12:36.226Z,99.90
2019-02-19T05:15:05.812Z,99.90
2019-02-19T05:17:35.570Z,99.90
2019-02-19T05:20:05.364Z,99.90
2019-02-19T05:22:35.058Z,99.90
2019-02-19T05:25:07.025Z,99.90
2019-02-19T05:27:36.762Z,99.90
2019-02-19T05:30:08.348Z,99.90
2019-02-19T05:32:37.791Z,99.90
2019-02-19T05:35:08.007Z,99.90
2019-02-19T05:37:37.465Z,99.90
2019-02-19T05:40:08.361Z,99.90
2019-02-19T05:42:38.329Z,99.90
2019-02-19T05:45:07.788Z,99.90
2019-02-19T05:47:37.011Z,99.90
2019-02-19T05:50:06.737Z,99.90
2019-02-19T05:52:36.387Z,99.90
2019-02-19T05:55:05.811Z,99.90
2019-02-19T05:57:34.976Z,99.90
2019-02-19T06:00:04.361Z,99.90
2019-02-19T06:02:35.900Z,99.90
2019-02-19T06:05:07.295Z,99.90
2019-02-19T06:07:36.872Z,99.90
2019-02-19T06:10:07.151Z,99.90
2019-02-19T06:12:36.655Z,99.90
2019-02-19T06:15:15.210Z,99.90
2019-02-19T06:17:44.793Z,99.90
2019-02-19T06:20:14.175Z,99.90
2019-02-19T06:22:43.661Z,99.90
2019-02-19T06:25:13.307Z,99.90
2019-02-19T06:27:42.912Z,99.90
2019-02-19T06:33:06.713Z,99.90
2019-02-19T06:35:36.356Z,99.90
2019-02-19T06:38:05.978Z,99.90
2019-02-19T06:40:41.304Z,99.90
2019-02-19T06:46:13.843Z,99.90
2019-02-19T06:48:43.389Z,99.90
2019-02-19T06:51:14.063Z,99.90
2019-02-19T06:56:53.122Z,99.90
2019-02-19T06:59:24.578Z,99.90
2019-02-19T07:02:11.857Z,99.90
2019-02-19T07:04:47.163Z,99.90
2019-02-19T07:09:58.740Z,99.90
2019-02-19T07:12:29.555Z,99.90
2019-02-19T07:14:59.240Z,99.90
2019-02-19T07:17:45.019Z,99.90
2019-02-19T07:22:56.864Z,99.90
2019-02-19T07:25:26.471Z,99.90
2019-02-19T07:27:56.182Z,99.90
2019-02-19T07:35:43.920Z,99.90
2019-02-19T07:38:13.443Z,99.90
2019-02-19T07:43:35.719Z,99.90
2019-02-19T07:46:05.294Z,99.90
2019-02-19T07:48:34.769Z,99.90
2019-02-19T07:51:15.033Z,99.90
2019-02-19T07:56:14.835Z,99.90
2019-02-19T08:02:14.427Z,99.90
2019-02-19T08:04:43.829Z,99.90
2019-02-19T08:10:05.427Z,99.90
2019-02-19T08:12:45.741Z,99.90
2019-02-19T08:15:18.297Z,99.90
2019-02-19T08:17:47.860Z,99.90
2019-02-19T08:20:43.891Z,99.90
2019-02-19T08:26:24.535Z,99.90
2019-02-19T08:28:53.996Z,99.90
2019-02-19T08:31:44.167Z,99.90
2019-02-19T08:34:14.065Z,99.90
2019-02-19T08:36:43.540Z,99.90
2019-02-19T08:39:13.073Z,99.90
2019-02-19T08:45:12.997Z,99.90
2019-02-19T08:47:43.073Z,99.90
2019-02-19T08:50:42.485Z,99.90
2019-02-19T08:53:12.033Z,99.90
2019-02-19T08:55:45.991Z,99.90
2019-02-19T08:58:44.915Z,99.90
2019-02-19T09:01:44.570Z,99.90
2019-02-19T09:04:14.056Z,99.90
2019-02-19T09:07:13.583Z,99.90
2019-02-19T09:09:43.485Z,99.90
2019-02-19T09:15:21.337Z,99.90
2019-02-19T09:17:52.227Z,99.90
2019-02-19T09:20:44.831Z,99.90
2019-02-19T09:23:18.598Z,99.90
2019-02-19T09:25:48.077Z,99.90
2019-02-19T09:28:17.494Z,99.90
2019-02-19T09:30:47.157Z,99.90
2019-02-19T09:33:16.774Z,99.90
2019-02-19T09:36:14.284Z,99.90
2019-02-19T09:38:45.463Z,99.90
2019-02-19T09:41:15.228Z,99.90
2019-02-19T09:44:15.413Z,99.90
2019-02-19T09:46:45.264Z,99.90
2019-02-19T09:49:45.720Z,99.90
2019-02-19T09:52:48.322Z,99.90
2019-02-19T09:58:14.720Z,99.90
2019-02-19T10:01:15.278Z,99.90
2019-02-19T10:04:13.959Z,99.90
2019-02-19T10:06:43.431Z,99.90
2019-02-19T10:09:12.857Z,99.90
2019-02-19T10:11:42.273Z,99.90
2019-02-19T10:14:12.479Z,99.90
2019-02-19T10:16:42.271Z,99.90
2019-02-19T10:19:11.839Z,99.90
2019-02-19T10:24:30.354Z,99.90
2019-02-19T10:27:00.146Z,99.90
2019-02-19T10:29:29.752Z,99.90
2019-02-19T10:31:59.560Z,99.90
2019-02-19T10:34:30.417Z,99.90
2019-02-19T10:37:00.061Z,99.90
2019-02-19T10:40:11.839Z,99.90
2019-02-19T10:42:41.392Z,99.90
2019-02-19T10:45:17.806Z,99.90
2019-02-19T10:47:48.261Z,99.90
2019-02-19T10:53:15.405Z,99.90
2019-02-19T10:56:14.895Z,99.90
2019-02-19T10:58:44.330Z,99.90
2019-02-19T11:01:14.115Z,99.90
2019-02-19T11:06:36.842Z,99.90
2019-02-19T11:09:07.267Z,99.90
2019-02-19T11:11:36.656Z,99.90
2019-02-19T11:14:06.352Z,99.90
2019-02-19T11:16:36.155Z,99.90
2019-02-19T11:19:05.641Z,99.90
2019-02-19T11:21:45.017Z,99.90
2019-02-19T11:24:14.571Z,99.90
2019-02-19T11:26:44.160Z,99.90
2019-02-19T11:29:13.688Z,99.90
2019-02-19T11:31:43.629Z,99.90
2019-02-19T11:34:42.339Z,99.90
2019-02-19T11:40:14.446Z,99.90
2019-02-19T11:42:44.031Z,99.90
2019-02-19T11:45:14.206Z,99.90
2019-02-19T11:50:37.788Z,99.90
2019-02-19T11:53:07.188Z,99.90
2019-02-19T11:55:36.671Z,99.90
2019-02-19T11:58:06.171Z,99.90
2019-02-19T12:00:57.159Z,99.90
2019-02-19T12:03:26.961Z,99.90
2019-02-19T12:06:16.612Z,99.90
2019-02-19T12:08:46.273Z,99.90
2019-02-19T12:11:15.829Z,99.90
2019-02-19T12:14:22.618Z,99.90
2019-02-19T12:16:53.973Z,99.90
2019-02-19T12:19:24.196Z,99.90
2019-02-19T12:21:53.854Z,99.90
2019-02-19T12:24:25.343Z,99.90
2019-02-19T12:26:56.125Z,99.90
2019-02-19T12:29:26.882Z,99.90
2019-02-19T12:32:19.122Z,99.90
2019-02-19T12:34:48.859Z,99.90
2019-02-19T12:37:18.388Z,99.90
2019-02-19T12:42:38.155Z,99.90
2019-02-19T12:45:08.495Z,99.90
2019-02-19T12:47:37.904Z,99.90
2019-02-19T12:50:20.774Z,99.90
2019-02-19T12:53:14.075Z,99.90
2019-02-19T12:58:52.405Z,99.90
2019-02-19T13:01:22.380Z,99.90
2019-02-19T13:07:50.067Z,99.90
2019-02-19T13:10:19.579Z,99.90
2019-02-19T13:13:10.914Z,99.90
2019-02-19T13:15:40.528Z,99.90
2019-02-19T13:18:36.253Z,99.90
2019-02-19T13:21:56.707Z,99.90
2019-02-19T13:24:30.071Z,99.90
2019-02-19T13:26:59.501Z,99.90
2019-02-19T13:29:28.904Z,99.90
2019-02-19T13:32:01.016Z,99.90
2019-02-19T13:34:30.446Z,99.90
2019-02-19T13:37:30.492Z,99.90
2019-02-19T13:40:00.302Z,99.90
2019-02-19T13:42:29.982Z,99.90
2019-02-19T13:45:00.757Z,99.90
2019-02-19T13:47:30.273Z,99.90
2019-02-19T13:53:26.536Z,99.90
2019-02-19T13:56:34.692Z,99.90
2019-02-19T13:58:56.904Z,99.90
2019-02-19T14:01:35.773Z,99.90
2019-02-19T14:06:59.095Z,99.90
2019-02-19T14:09:28.638Z,99.90
2019-02-19T14:11:58.229Z,99.90
2019-02-19T14:14:34.927Z,99.90
2019-02-19T14:17:09.980Z,99.90
2019-02-19T14:19:53.264Z,99.90
2019-02-19T14:22:47.708Z,99.90
2019-02-19T14:25:39.114Z,99.90
2019-02-19T14:28:28.762Z,99.90
2019-02-19T14:31:18.592Z,99.90
2019-02-19T14:34:05.814Z,99.90
2019-02-19T14:36:54.235Z,99.90
2019-02-19T14:39:45.345Z,99.90
2019-02-19T14:42:29.831Z,99.90
2019-02-19T14:45:18.711Z,99.90
2019-02-19T14:48:13.829Z,99.90
2019-02-19T14:57:05.526Z,99.90
2019-02-19T15:00:11.649Z,99.90
2019-02-19T15:03:03.980Z,99.90
2019-02-19T15:06:26.646Z,99.90
2019-02-19T15:09:18.124Z,99.90
2019-02-19T15:23:53.153Z,99.90
2019-02-19T15:26:35.484Z,99.90
2019-02-19T15:29:59.750Z,99.90
2019-02-19T16:28:30.089Z,99.90
2019-02-19T17:06:52.964Z,99.90
2019-02-19T17:16:52.635Z,99.90
2019-02-19T17:22:35.283Z,99.90
2019-02-19T17:25:26.899Z,99.90
2019-02-19T17:28:27.358Z,99.90
2019-02-19T17:31:17.853Z,99.90
2019-02-19T17:34:24.066Z,99.90
2019-02-19T17:37:21.229Z,99.90
2019-02-19T17:40:05.557Z,99.90
2019-02-19T17:42:52.860Z,99.90
2019-02-19T17:45:57.904Z,99.90
2019-02-19T17:48:55.715Z,99.90
2019-02-19T17:51:37.911Z,99.90
2019-02-19T17:54:24.844Z,99.90
2019-02-19T17:57:14.431Z,99.90
2019-02-19T18:00:20.709Z,99.90
2019-02-19T18:03:09.227Z,99.90
2019-02-19T18:06:10.025Z,99.90
2019-02-19T18:08:47.180Z,99.90
2019-02-19T18:11:44.772Z,99.90
2019-02-19T18:14:39.301Z,99.90
2019-02-19T18:17:31.078Z,99.90
2019-02-19T18:20:00.556Z,99.90
2019-02-19T18:25:09.027Z,99.90
2019-02-19T18:27:46.462Z,99.90
2019-02-19T18:30:19.695Z,99.90
2019-02-19T18:32:54.771Z,99.90
2019-02-19T18:35:24.244Z,99.90
2019-02-19T18:37:54.847Z,99.90
2019-02-19T18:40:22.808Z,99.90
2019-02-19T18:42:52.411Z,99.90
2019-02-19T18:45:21.928Z,99.90
2019-02-19T18:47:51.494Z,99.90
2019-02-19T18:50:20.950Z,99.90
2019-02-19T18:52:51.924Z,99.90
2019-02-19T18:55:21.415Z,99.90
2019-02-19T18:57:50.981Z,99.90
2019-02-19T19:00:32.636Z,99.90
2019-02-19T19:03:02.088Z,99.90
2019-02-19T19:08:17.922Z,99.90
2019-02-19T19:10:55.447Z,99.90
2019-02-19T19:13:35.531Z,99.90
2019-02-19T19:21:37.940Z,99.90
2019-02-19T19:24:06.432Z,99.90
2019-02-19T19:26:36.103Z,99.90
2019-02-19T19:29:28.846Z,99.90
2019-02-19T19:31:58.689Z,99.90
2019-02-19T19:34:28.209Z,99.90
2019-02-19T19:36:57.614Z,99.90
2019-02-19T19:39:27.080Z,99.90
2019-02-19T19:41:56.929Z,99.90
2019-02-19T19:44:26.293Z,99.90
2019-02-19T19:46:55.791Z,99.90
2019-02-19T19:49:25.213Z,99.90
2019-02-19T19:51:54.708Z,99.90
2019-02-19T19:54:24.107Z,99.90
2019-02-19T19:56:53.488Z,99.90
2019-02-19T19:59:22.821Z,99.90
2019-02-19T20:01:52.119Z,99.90
2019-02-19T20:04:21.156Z,99.90
2019-02-19T20:06:50.473Z,99.90
2019-02-19T20:09:19.671Z,99.90
2019-02-19T20:11:48.896Z,99.90
2019-02-19T20:14:18.067Z,99.90
2019-02-19T20:16:47.146Z,99.90
2019-02-19T20:19:16.239Z,99.90
2019-02-19T20:21:45.431Z,99.90
2019-02-19T20:24:14.531Z,99.90
2019-02-19T20:26:43.697Z,99.90
2019-02-19T20:29:12.972Z,99.90
2019-02-19T20:31:42.211Z,99.90
2019-02-19T20:34:11.437Z,99.90
2019-02-19T20:36:40.905Z,99.90
2019-02-19T20:39:10.181Z,99.90
2019-02-19T20:41:39.383Z,99.90
2019-02-19T20:44:08.888Z,99.90
2019-02-19T20:46:39.507Z,99.90
2019-02-19T20:49:09.204Z,99.90
2019-02-19T20:51:57.695Z,99.90
2019-02-19T20:54:27.334Z,99.90
2019-02-19T20:56:57.105Z,99.90
2019-02-19T20:59:26.802Z,99.90
2019-02-19T21:01:56.213Z,99.90
2019-02-19T21:04:26.746Z,99.90
2019-02-19T21:06:56.183Z,99.90
2019-02-19T21:09:25.873Z,99.90
2019-02-19T21:11:55.265Z,99.90
2019-02-19T21:14:24.608Z,99.90
2019-02-19T21:16:54.016Z,99.90
2019-02-19T21:19:23.467Z,99.90
2019-02-19T21:21:52.931Z,99.90
2019-02-19T21:24:41.437Z,99.90
2019-02-19T21:27:10.793Z,99.90
2019-02-19T21:29:40.240Z,99.90
2019-02-19T21:32:28.808Z,99.90
2019-02-19T21:34:58.240Z,99.90
2019-02-19T21:45:55.285Z,99.90
2019-02-19T21:48:25.255Z,99.90
2019-02-19T21:53:34.157Z,99.90
2019-02-19T21:56:04.147Z,99.90
2019-02-19T22:01:49.940Z,99.90
2019-02-19T22:04:51.927Z,99.90
2019-02-19T22:07:21.434Z,99.90
2019-02-19T22:18:01.209Z,99.90
2019-02-19T22:20:50.037Z,99.90
2019-02-19T22:23:19.601Z,99.90
2019-02-19T22:25:48.985Z,99.90
2019-02-19T22:31:23.741Z,99.90
2019-02-19T22:33:38.535Z,99.90
2019-02-19T22:38:43.922Z,99.90
2019-02-19T22:41:13.424Z,99.90
2019-02-19T22:43:42.983Z,99.90
2019-02-19T22:46:31.535Z,99.90
2019-02-19T22:51:55.080Z,99.90
2019-02-19T22:54:52.897Z,99.90
2019-02-19T22:57:22.557Z,99.90
2019-02-19T22:59:52.225Z,99.90
2019-02-19T23:02:29.706Z,99.90
2019-02-19T23:05:23.855Z,99.90
2019-02-19T23:11:04.060Z,99.90
2019-02-19T23:13:33.516Z,99.90
2019-02-19T23:16:29.834Z,99.90
2019-02-19T23:18:59.399Z,99.90
2019-02-19T23:22:22.712Z,99.90
2019-02-19T23:25:11.388Z,99.90
2019-02-19T23:28:02.860Z,99.90
2019-02-19T23:30:54.024Z,99.90
2019-02-19T23:33:59.188Z,99.90
2019-02-19T23:36:47.647Z,99.90
2019-02-19T23:39:17.216Z,99.90
2019-02-19T23:42:05.720Z,99.90
2019-02-19T23:44:35.285Z,99.90
2019-02-19T23:47:04.676Z,99.90
2019-02-19T23:49:34.642Z,99.90
2019-02-19T23:52:04.169Z,99.90
2019-02-19T23:54:33.637Z,99.90
2019-02-19T23:57:02.948Z,99.90
2019-02-19T23:59:32.655Z,99.90
